sensor_id;sensor_type;location;lat;lon;timestamp;P1;durP1;ratioP1;P2;durP2;ratioP2
8104;SDS011;4095;48.942;9.104;2024-03-02T00:00:41;20.13;;;16.47;;
8104;SDS011;4095;48.942;9.104;2024-03-02T00:03:07;20.73;;;16.37;;
8104;SDS011;4095;48.942;9.104;2024-03-02T00:05:34;20.33;;;16.30;;
8104;SDS011;4095;48.942;9.104;2024-03-02T00:08:00;22.03;;;16.07;;
8104;SDS011;4095;48.942;9.104;2024-03-02T00:10:27;21.73;;;16.47;;
8104;SDS011;4095;48.942;9.104;2024-03-02T00:13:11;20.80;;;16.03;;
8104;SDS011;4095;48.942;9.104;2024-03-02T00:15:41;20.63;;;16.53;;
8104;SDS011;4095;48.942;9.104;2024-03-02T00:18:34;19.10;;;15.00;;
8104;SDS011;4095;48.942;9.104;2024-03-02T00:21:00;18.57;;;15.67;;
8104;SDS011;4095;48.942;9.104;2024-03-02T00:23:29;22.43;;;16.40;;
8104;SDS011;4095;48.942;9.104;2024-03-02T00:25:56;22.33;;;17.30;;
8104;SDS011;4095;48.942;9.104;2024-03-02T00:28:23;19.50;;;15.87;;
8104;SDS011;4095;48.942;9.104;2024-03-02T00:33:30;20.03;;;16.13;;
8104;SDS011;4095;48.942;9.104;2024-03-02T00:36:00;18.40;;;15.13;;
8104;SDS011;4095;48.942;9.104;2024-03-02T00:38:28;19.17;;;15.77;;
8104;SDS011;4095;48.942;9.104;2024-03-02T00:40:54;22.73;;;16.00;;
8104;SDS011;4095;48.942;9.104;2024-03-02T00:43:38;19.73;;;16.13;;
8104;SDS011;4095;48.942;9.104;2024-03-02T00:46:26;21.67;;;16.73;;
8104;SDS011;4095;48.942;9.104;2024-03-02T00:48:58;20.33;;;16.13;;
8104;SDS011;4095;48.942;9.104;2024-03-02T00:51:26;20.63;;;15.63;;
8104;SDS011;4095;48.942;9.104;2024-03-02T00:53:54;20.83;;;16.10;;
8104;SDS011;4095;48.942;9.104;2024-03-02T00:56:23;18.77;;;15.30;;
8104;SDS011;4095;48.942;9.104;2024-03-02T00:58:50;18.17;;;15.33;;
8104;SDS011;4095;48.942;9.104;2024-03-02T01:01:16;19.33;;;16.27;;
8104;SDS011;4095;48.942;9.104;2024-03-02T01:03:42;20.57;;;15.80;;
8104;SDS011;4095;48.942;9.104;2024-03-02T01:06:08;18.53;;;15.20;;
8104;SDS011;4095;48.942;9.104;2024-03-02T01:08:34;19.67;;;14.97;;
8104;SDS011;4095;48.942;9.104;2024-03-02T01:11:00;19.00;;;14.93;;
8104;SDS011;4095;48.942;9.104;2024-03-02T01:13:26;18.37;;;15.23;;
8104;SDS011;4095;48.942;9.104;2024-03-02T01:15:52;18.30;;;14.60;;
8104;SDS011;4095;48.942;9.104;2024-03-02T01:18:18;20.30;;;15.67;;
8104;SDS011;4095;48.942;9.104;2024-03-02T01:20:44;21.30;;;14.80;;
8104;SDS011;4095;48.942;9.104;2024-03-02T01:23:09;18.40;;;14.70;;
8104;SDS011;4095;48.942;9.104;2024-03-02T01:25:35;18.77;;;14.80;;
8104;SDS011;4095;48.942;9.104;2024-03-02T01:28:01;16.27;;;14.53;;
8104;SDS011;4095;48.942;9.104;2024-03-02T01:30:26;19.90;;;15.13;;
8104;SDS011;4095;48.942;9.104;2024-03-02T01:32:52;18.00;;;14.50;;
8104;SDS011;4095;48.942;9.104;2024-03-02T01:35:17;17.93;;;14.13;;
8104;SDS011;4095;48.942;9.104;2024-03-02T01:37:43;18.83;;;14.00;;
8104;SDS011;4095;48.942;9.104;2024-03-02T01:40:09;15.63;;;13.27;;
8104;SDS011;4095;48.942;9.104;2024-03-02T01:42:36;18.40;;;14.00;;
8104;SDS011;4095;48.942;9.104;2024-03-02T01:45:05;18.07;;;14.57;;
8104;SDS011;4095;48.942;9.104;2024-03-02T01:47:32;17.27;;;14.10;;
8104;SDS011;4095;48.942;9.104;2024-03-02T01:49:58;15.07;;;13.47;;
8104;SDS011;4095;48.942;9.104;2024-03-02T01:52:25;17.00;;;14.00;;
8104;SDS011;4095;48.942;9.104;2024-03-02T01:54:50;16.97;;;13.57;;
8104;SDS011;4095;48.942;9.104;2024-03-02T01:57:16;15.77;;;13.10;;
8104;SDS011;4095;48.942;9.104;2024-03-02T01:59:42;18.50;;;14.20;;
8104;SDS011;4095;48.942;9.104;2024-03-02T02:02:09;16.67;;;13.00;;
8104;SDS011;4095;48.942;9.104;2024-03-02T02:04:35;16.23;;;13.17;;
8104;SDS011;4095;48.942;9.104;2024-03-02T02:07:00;16.30;;;13.43;;
8104;SDS011;4095;48.942;9.104;2024-03-02T02:09:26;17.20;;;12.70;;
8104;SDS011;4095;48.942;9.104;2024-03-02T02:11:52;16.83;;;12.83;;
8104;SDS011;4095;48.942;9.104;2024-03-02T02:14:17;17.80;;;14.27;;
8104;SDS011;4095;48.942;9.104;2024-03-02T02:16:43;15.87;;;13.77;;
8104;SDS011;4095;48.942;9.104;2024-03-02T02:19:09;16.23;;;12.87;;
8104;SDS011;4095;48.942;9.104;2024-03-02T02:21:35;14.70;;;13.10;;
8104;SDS011;4095;48.942;9.104;2024-03-02T02:24:01;14.47;;;12.57;;
8104;SDS011;4095;48.942;9.104;2024-03-02T02:26:28;16.53;;;12.70;;
8104;SDS011;4095;48.942;9.104;2024-03-02T02:28:54;15.93;;;12.37;;
8104;SDS011;4095;48.942;9.104;2024-03-02T02:31:20;16.97;;;12.33;;
8104;SDS011;4095;48.942;9.104;2024-03-02T02:33:45;14.27;;;12.77;;
8104;SDS011;4095;48.942;9.104;2024-03-02T02:36:11;14.77;;;12.50;;
8104;SDS011;4095;48.942;9.104;2024-03-02T02:38:38;14.80;;;12.70;;
8104;SDS011;4095;48.942;9.104;2024-03-02T02:41:07;13.73;;;11.80;;
8104;SDS011;4095;48.942;9.104;2024-03-02T02:43:33;13.70;;;12.23;;
8104;SDS011;4095;48.942;9.104;2024-03-02T02:45:59;14.10;;;12.17;;
8104;SDS011;4095;48.942;9.104;2024-03-02T02:48:24;13.83;;;12.27;;
8104;SDS011;4095;48.942;9.104;2024-03-02T02:50:50;14.93;;;11.93;;
8104;SDS011;4095;48.942;9.104;2024-03-02T02:53:16;12.43;;;11.13;;
8104;SDS011;4095;48.942;9.104;2024-03-02T02:55:41;14.07;;;11.40;;
8104;SDS011;4095;48.942;9.104;2024-03-02T02:58:08;13.43;;;11.60;;
8104;SDS011;4095;48.942;9.104;2024-03-02T03:00:34;14.00;;;11.70;;
8104;SDS011;4095;48.942;9.104;2024-03-02T03:03:01;14.43;;;11.70;;
8104;SDS011;4095;48.942;9.104;2024-03-02T03:05:27;14.90;;;11.47;;
8104;SDS011;4095;48.942;9.104;2024-03-02T03:07:53;15.93;;;12.27;;
8104;SDS011;4095;48.942;9.104;2024-03-02T03:10:18;15.37;;;12.43;;
8104;SDS011;4095;48.942;9.104;2024-03-02T03:12:47;15.07;;;12.03;;
8104;SDS011;4095;48.942;9.104;2024-03-02T03:15:12;14.27;;;12.40;;
8104;SDS011;4095;48.942;9.104;2024-03-02T03:17:39;15.10;;;11.77;;
8104;SDS011;4095;48.942;9.104;2024-03-02T03:20:05;14.77;;;11.83;;
8104;SDS011;4095;48.942;9.104;2024-03-02T03:22:34;14.97;;;12.13;;
8104;SDS011;4095;48.942;9.104;2024-03-02T03:25:00;14.20;;;12.37;;
8104;SDS011;4095;48.942;9.104;2024-03-02T03:27:26;14.70;;;12.07;;
8104;SDS011;4095;48.942;9.104;2024-03-02T03:29:52;12.47;;;11.13;;
8104;SDS011;4095;48.942;9.104;2024-03-02T03:32:18;14.97;;;12.10;;
8104;SDS011;4095;48.942;9.104;2024-03-02T03:34:43;15.63;;;12.20;;
8104;SDS011;4095;48.942;9.104;2024-03-02T03:37:09;13.60;;;11.53;;
8104;SDS011;4095;48.942;9.104;2024-03-02T03:39:35;13.20;;;11.77;;
8104;SDS011;4095;48.942;9.104;2024-03-02T03:42:01;14.77;;;11.70;;
8104;SDS011;4095;48.942;9.104;2024-03-02T03:44:26;13.50;;;11.43;;
8104;SDS011;4095;48.942;9.104;2024-03-02T03:46:52;16.00;;;12.30;;
8104;SDS011;4095;48.942;9.104;2024-03-02T03:49:17;13.60;;;11.63;;
8104;SDS011;4095;48.942;9.104;2024-03-02T03:51:43;13.33;;;11.67;;
8104;SDS011;4095;48.942;9.104;2024-03-02T03:54:09;14.50;;;11.70;;
8104;SDS011;4095;48.942;9.104;2024-03-02T03:56:36;15.13;;;11.87;;
8104;SDS011;4095;48.942;9.104;2024-03-02T03:59:02;14.47;;;11.90;;
8104;SDS011;4095;48.942;9.104;2024-03-02T04:01:27;16.20;;;12.17;;
8104;SDS011;4095;48.942;9.104;2024-03-02T04:03:53;16.20;;;11.47;;
8104;SDS011;4095;48.942;9.104;2024-03-02T04:06:19;15.53;;;12.80;;
8104;SDS011;4095;48.942;9.104;2024-03-02T04:08:44;14.70;;;11.77;;
8104;SDS011;4095;48.942;9.104;2024-03-02T04:11:10;13.70;;;11.63;;
8104;SDS011;4095;48.942;9.104;2024-03-02T04:13:36;14.83;;;11.40;;
8104;SDS011;4095;48.942;9.104;2024-03-02T04:16:01;15.43;;;11.90;;
8104;SDS011;4095;48.942;9.104;2024-03-02T04:18:28;14.67;;;12.07;;
8104;SDS011;4095;48.942;9.104;2024-03-02T04:20:54;13.47;;;11.63;;
8104;SDS011;4095;48.942;9.104;2024-03-02T04:23:20;15.03;;;11.37;;
8104;SDS011;4095;48.942;9.104;2024-03-02T04:25:45;13.90;;;11.97;;
8104;SDS011;4095;48.942;9.104;2024-03-02T04:28:11;16.47;;;12.10;;
8104;SDS011;4095;48.942;9.104;2024-03-02T04:30:37;14.80;;;11.33;;
8104;SDS011;4095;48.942;9.104;2024-03-02T04:33:03;15.37;;;12.90;;
8104;SDS011;4095;48.942;9.104;2024-03-02T04:35:30;15.53;;;12.60;;
8104;SDS011;4095;48.942;9.104;2024-03-02T04:37:56;14.97;;;12.83;;
8104;SDS011;4095;48.942;9.104;2024-03-02T04:40:21;16.97;;;12.70;;
8104;SDS011;4095;48.942;9.104;2024-03-02T04:42:47;16.10;;;12.03;;
8104;SDS011;4095;48.942;9.104;2024-03-02T04:45:12;15.53;;;12.10;;
8104;SDS011;4095;48.942;9.104;2024-03-02T04:47:38;14.70;;;12.47;;
8104;SDS011;4095;48.942;9.104;2024-03-02T04:50:04;15.53;;;13.10;;
8104;SDS011;4095;48.942;9.104;2024-03-02T04:52:30;14.83;;;12.67;;
8104;SDS011;4095;48.942;9.104;2024-03-02T04:54:56;14.97;;;12.67;;
8104;SDS011;4095;48.942;9.104;2024-03-02T04:57:40;16.33;;;13.03;;
8104;SDS011;4095;48.942;9.104;2024-03-02T05:00:06;14.77;;;12.03;;
8104;SDS011;4095;48.942;9.104;2024-03-02T05:02:32;14.07;;;12.13;;
8104;SDS011;4095;48.942;9.104;2024-03-02T05:04:57;17.73;;;12.77;;
8104;SDS011;4095;48.942;9.104;2024-03-02T05:07:23;14.63;;;12.77;;
8104;SDS011;4095;48.942;9.104;2024-03-02T05:09:48;16.17;;;12.90;;
8104;SDS011;4095;48.942;9.104;2024-03-02T05:12:14;16.00;;;11.97;;
8104;SDS011;4095;48.942;9.104;2024-03-02T05:14:58;12.63;;;11.13;;
8104;SDS011;4095;48.942;9.104;2024-03-02T05:17:23;14.83;;;13.00;;
8104;SDS011;4095;48.942;9.104;2024-03-02T05:19:49;14.57;;;12.33;;
8104;SDS011;4095;48.942;9.104;2024-03-02T05:22:15;17.10;;;13.13;;
8104;SDS011;4095;48.942;9.104;2024-03-02T05:24:41;15.70;;;12.40;;
8104;SDS011;4095;48.942;9.104;2024-03-02T05:27:07;15.10;;;12.63;;
8104;SDS011;4095;48.942;9.104;2024-03-02T05:29:32;15.97;;;13.43;;
8104;SDS011;4095;48.942;9.104;2024-03-02T05:31:58;15.83;;;12.83;;
8104;SDS011;4095;48.942;9.104;2024-03-02T05:34:23;15.97;;;12.33;;
8104;SDS011;4095;48.942;9.104;2024-03-02T05:36:49;15.53;;;11.90;;
8104;SDS011;4095;48.942;9.104;2024-03-02T05:39:14;16.13;;;12.93;;
8104;SDS011;4095;48.942;9.104;2024-03-02T05:41:40;16.67;;;12.97;;
8104;SDS011;4095;48.942;9.104;2024-03-02T05:44:06;16.57;;;12.80;;
8104;SDS011;4095;48.942;9.104;2024-03-02T05:46:31;15.63;;;12.80;;
8104;SDS011;4095;48.942;9.104;2024-03-02T05:48:58;17.50;;;14.07;;
8104;SDS011;4095;48.942;9.104;2024-03-02T05:51:24;16.67;;;13.67;;
8104;SDS011;4095;48.942;9.104;2024-03-02T05:53:50;16.57;;;13.53;;
8104;SDS011;4095;48.942;9.104;2024-03-02T05:56:15;16.70;;;13.20;;
8104;SDS011;4095;48.942;9.104;2024-03-02T05:58:41;19.20;;;15.10;;
8104;SDS011;4095;48.942;9.104;2024-03-02T06:01:25;17.17;;;13.70;;
8104;SDS011;4095;48.942;9.104;2024-03-02T06:03:56;16.00;;;13.20;;
8104;SDS011;4095;48.942;9.104;2024-03-02T06:06:23;16.50;;;14.03;;
8104;SDS011;4095;48.942;9.104;2024-03-02T06:08:49;17.40;;;14.47;;
8104;SDS011;4095;48.942;9.104;2024-03-02T06:11:15;16.37;;;13.70;;
8104;SDS011;4095;48.942;9.104;2024-03-02T06:13:40;20.03;;;14.17;;
8104;SDS011;4095;48.942;9.104;2024-03-02T06:16:06;15.03;;;12.50;;
8104;SDS011;4095;48.942;9.104;2024-03-02T06:18:33;16.83;;;13.70;;
8104;SDS011;4095;48.942;9.104;2024-03-02T06:20:59;16.13;;;14.43;;
8104;SDS011;4095;48.942;9.104;2024-03-02T06:23:25;16.37;;;12.87;;
8104;SDS011;4095;48.942;9.104;2024-03-02T06:25:51;15.23;;;13.53;;
8104;SDS011;4095;48.942;9.104;2024-03-02T06:28:17;18.03;;;14.53;;
8104;SDS011;4095;48.942;9.104;2024-03-02T06:30:43;18.57;;;14.87;;
8104;SDS011;4095;48.942;9.104;2024-03-02T06:33:09;16.13;;;14.23;;
8104;SDS011;4095;48.942;9.104;2024-03-02T06:35:34;15.87;;;14.10;;
8104;SDS011;4095;48.942;9.104;2024-03-02T06:38:00;19.00;;;15.13;;
8104;SDS011;4095;48.942;9.104;2024-03-02T06:40:26;15.90;;;14.07;;
8104;SDS011;4095;48.942;9.104;2024-03-02T06:42:52;17.97;;;14.53;;
8104;SDS011;4095;48.942;9.104;2024-03-02T06:45:17;19.93;;;14.57;;
8104;SDS011;4095;48.942;9.104;2024-03-02T06:47:43;16.73;;;14.50;;
8104;SDS011;4095;48.942;9.104;2024-03-02T06:50:08;20.93;;;14.97;;
8104;SDS011;4095;48.942;9.104;2024-03-02T06:52:35;19.13;;;15.23;;
8104;SDS011;4095;48.942;9.104;2024-03-02T06:55:01;19.70;;;14.50;;
8104;SDS011;4095;48.942;9.104;2024-03-02T06:57:27;18.90;;;15.77;;
8104;SDS011;4095;48.942;9.104;2024-03-02T06:59:52;18.40;;;14.93;;
8104;SDS011;4095;48.942;9.104;2024-03-02T07:02:22;20.20;;;15.90;;
8104;SDS011;4095;48.942;9.104;2024-03-02T07:04:48;19.63;;;16.30;;
8104;SDS011;4095;48.942;9.104;2024-03-02T07:07:13;18.80;;;15.63;;
8104;SDS011;4095;48.942;9.104;2024-03-02T07:09:39;20.77;;;15.50;;
8104;SDS011;4095;48.942;9.104;2024-03-02T07:12:05;18.60;;;15.53;;
8104;SDS011;4095;48.942;9.104;2024-03-02T07:14:30;19.43;;;16.00;;
8104;SDS011;4095;48.942;9.104;2024-03-02T07:17:14;18.57;;;15.90;;
8104;SDS011;4095;48.942;9.104;2024-03-02T07:19:40;17.67;;;14.60;;
8104;SDS011;4095;48.942;9.104;2024-03-02T07:22:06;18.50;;;15.50;;
8104;SDS011;4095;48.942;9.104;2024-03-02T07:24:38;18.27;;;15.73;;
8104;SDS011;4095;48.942;9.104;2024-03-02T07:27:05;18.03;;;15.07;;
8104;SDS011;4095;48.942;9.104;2024-03-02T07:29:31;18.87;;;16.23;;
8104;SDS011;4095;48.942;9.104;2024-03-02T07:31:57;21.60;;;17.07;;
8104;SDS011;4095;48.942;9.104;2024-03-02T07:34:23;21.87;;;17.77;;
8104;SDS011;4095;48.942;9.104;2024-03-02T07:36:48;19.37;;;16.33;;
8104;SDS011;4095;48.942;9.104;2024-03-02T07:39:14;18.83;;;15.77;;
8104;SDS011;4095;48.942;9.104;2024-03-02T07:41:39;19.23;;;16.03;;
8104;SDS011;4095;48.942;9.104;2024-03-02T07:44:05;18.73;;;15.10;;
8104;SDS011;4095;48.942;9.104;2024-03-02T07:46:31;21.40;;;16.87;;
8104;SDS011;4095;48.942;9.104;2024-03-02T07:48:56;20.53;;;16.27;;
8104;SDS011;4095;48.942;9.104;2024-03-02T07:51:22;19.17;;;15.20;;
8104;SDS011;4095;48.942;9.104;2024-03-02T07:53:47;18.53;;;15.80;;
8104;SDS011;4095;48.942;9.104;2024-03-02T07:56:13;18.23;;;15.80;;
8104;SDS011;4095;48.942;9.104;2024-03-02T07:58:39;21.10;;;17.73;;
8104;SDS011;4095;48.942;9.104;2024-03-02T08:01:07;17.67;;;15.77;;
8104;SDS011;4095;48.942;9.104;2024-03-02T08:03:32;20.73;;;17.00;;
8104;SDS011;4095;48.942;9.104;2024-03-02T08:05:59;19.53;;;16.20;;
8104;SDS011;4095;48.942;9.104;2024-03-02T08:08:25;18.67;;;15.17;;
8104;SDS011;4095;48.942;9.104;2024-03-02T08:10:50;18.67;;;15.10;;
8104;SDS011;4095;48.942;9.104;2024-03-02T08:13:16;18.83;;;14.40;;
8104;SDS011;4095;48.942;9.104;2024-03-02T08:15:41;17.97;;;14.83;;
8104;SDS011;4095;48.942;9.104;2024-03-02T08:18:07;16.17;;;14.47;;
8104;SDS011;4095;48.942;9.104;2024-03-02T08:20:33;19.07;;;14.83;;
8104;SDS011;4095;48.942;9.104;2024-03-02T08:22:58;17.90;;;14.53;;
8104;SDS011;4095;48.942;9.104;2024-03-02T08:25:24;17.57;;;15.40;;
8104;SDS011;4095;48.942;9.104;2024-03-02T08:27:49;17.77;;;15.00;;
8104;SDS011;4095;48.942;9.104;2024-03-02T08:30:15;18.90;;;16.30;;
8104;SDS011;4095;48.942;9.104;2024-03-02T08:32:41;19.70;;;16.87;;
8104;SDS011;4095;48.942;9.104;2024-03-02T08:35:06;18.67;;;15.77;;
8104;SDS011;4095;48.942;9.104;2024-03-02T08:37:32;17.83;;;15.17;;
8104;SDS011;4095;48.942;9.104;2024-03-02T08:39:57;17.57;;;14.37;;
8104;SDS011;4095;48.942;9.104;2024-03-02T08:42:23;16.00;;;13.87;;
8104;SDS011;4095;48.942;9.104;2024-03-02T08:44:49;15.80;;;14.00;;
8104;SDS011;4095;48.942;9.104;2024-03-02T08:47:15;14.90;;;13.30;;
8104;SDS011;4095;48.942;9.104;2024-03-02T08:49:40;14.93;;;13.30;;
8104;SDS011;4095;48.942;9.104;2024-03-02T08:52:06;18.87;;;13.00;;
8104;SDS011;4095;48.942;9.104;2024-03-02T08:54:31;12.77;;;11.47;;
8104;SDS011;4095;48.942;9.104;2024-03-02T08:56:58;13.03;;;10.60;;
8104;SDS011;4095;48.942;9.104;2024-03-02T08:59:24;10.90;;;9.70;;
8104;SDS011;4095;48.942;9.104;2024-03-02T09:01:52;10.77;;;9.67;;
8104;SDS011;4095;48.942;9.104;2024-03-02T09:04:18;10.27;;;9.10;;
8104;SDS011;4095;48.942;9.104;2024-03-02T09:06:44;9.73;;;8.73;;
8104;SDS011;4095;48.942;9.104;2024-03-02T09:09:09;10.23;;;8.73;;
8104;SDS011;4095;48.942;9.104;2024-03-02T09:11:35;9.90;;;8.53;;
8104;SDS011;4095;48.942;9.104;2024-03-02T09:14:01;8.93;;;7.90;;
8104;SDS011;4095;48.942;9.104;2024-03-02T09:16:26;10.33;;;7.87;;
8104;SDS011;4095;48.942;9.104;2024-03-02T09:18:55;8.03;;;7.23;;
8104;SDS011;4095;48.942;9.104;2024-03-02T09:21:21;7.40;;;6.70;;
8104;SDS011;4095;48.942;9.104;2024-03-02T09:23:47;9.23;;;6.63;;
8104;SDS011;4095;48.942;9.104;2024-03-02T09:26:13;6.83;;;6.13;;
8104;SDS011;4095;48.942;9.104;2024-03-02T09:28:42;7.93;;;6.90;;
8104;SDS011;4095;48.942;9.104;2024-03-02T09:31:08;7.33;;;6.40;;
8104;SDS011;4095;48.942;9.104;2024-03-02T09:33:34;6.80;;;6.00;;
8104;SDS011;4095;48.942;9.104;2024-03-02T09:35:59;7.50;;;6.33;;
8104;SDS011;4095;48.942;9.104;2024-03-02T09:38:25;6.97;;;6.10;;
8104;SDS011;4095;48.942;9.104;2024-03-02T09:40:51;6.60;;;5.63;;
8104;SDS011;4095;48.942;9.104;2024-03-02T09:43:16;6.73;;;6.03;;
8104;SDS011;4095;48.942;9.104;2024-03-02T09:45:42;8.00;;;5.90;;
8104;SDS011;4095;48.942;9.104;2024-03-02T09:48:09;6.57;;;5.70;;
8104;SDS011;4095;48.942;9.104;2024-03-02T09:50:35;6.80;;;5.80;;
8104;SDS011;4095;48.942;9.104;2024-03-02T09:53:01;6.33;;;5.47;;
8104;SDS011;4095;48.942;9.104;2024-03-02T09:55:27;7.03;;;6.00;;
8104;SDS011;4095;48.942;9.104;2024-03-02T09:57:53;5.93;;;5.33;;
8104;SDS011;4095;48.942;9.104;2024-03-02T10:00:18;6.93;;;5.80;;
8104;SDS011;4095;48.942;9.104;2024-03-02T10:02:44;6.27;;;5.67;;
8104;SDS011;4095;48.942;9.104;2024-03-02T10:05:13;6.00;;;5.40;;
8104;SDS011;4095;48.942;9.104;2024-03-02T10:07:59;6.70;;;5.30;;
8104;SDS011;4095;48.942;9.104;2024-03-02T10:10:33;6.20;;;5.20;;
8104;SDS011;4095;48.942;9.104;2024-03-02T10:13:07;6.60;;;5.40;;
8104;SDS011;4095;48.942;9.104;2024-03-02T10:15:33;5.60;;;5.10;;
8104;SDS011;4095;48.942;9.104;2024-03-02T10:17:59;5.47;;;4.97;;
8104;SDS011;4095;48.942;9.104;2024-03-02T10:20:25;4.67;;;4.27;;
8104;SDS011;4095;48.942;9.104;2024-03-02T10:22:53;5.53;;;4.93;;
8104;SDS011;4095;48.942;9.104;2024-03-02T10:25:32;5.63;;;4.90;;
8104;SDS011;4095;48.942;9.104;2024-03-02T10:27:59;6.17;;;5.57;;
8104;SDS011;4095;48.942;9.104;2024-03-02T10:30:26;5.13;;;4.60;;
8104;SDS011;4095;48.942;9.104;2024-03-02T10:32:55;5.40;;;4.90;;
8104;SDS011;4095;48.942;9.104;2024-03-02T10:35:24;5.17;;;4.40;;
8104;SDS011;4095;48.942;9.104;2024-03-02T10:37:50;4.33;;;3.93;;
8104;SDS011;4095;48.942;9.104;2024-03-02T10:40:17;5.73;;;4.37;;
8104;SDS011;4095;48.942;9.104;2024-03-02T10:42:43;4.50;;;4.10;;
8104;SDS011;4095;48.942;9.104;2024-03-02T10:45:10;4.37;;;3.80;;
8104;SDS011;4095;48.942;9.104;2024-03-02T10:47:37;4.70;;;4.20;;
8104;SDS011;4095;48.942;9.104;2024-03-02T10:50:04;4.67;;;4.27;;
8104;SDS011;4095;48.942;9.104;2024-03-02T10:52:36;4.67;;;4.17;;
8104;SDS011;4095;48.942;9.104;2024-03-02T10:55:03;3.67;;;3.37;;
8104;SDS011;4095;48.942;9.104;2024-03-02T10:57:37;3.60;;;3.30;;
8104;SDS011;4095;48.942;9.104;2024-03-02T11:00:06;6.35;;;3.10;;
8104;SDS011;4095;48.942;9.104;2024-03-02T11:02:32;2.88;;;2.60;;
8104;SDS011;4095;48.942;9.104;2024-03-02T11:05:03;3.40;;;2.65;;
8104;SDS011;4095;48.942;9.104;2024-03-02T11:07:32;2.90;;;2.60;;
8104;SDS011;4095;48.942;9.104;2024-03-02T11:10:01;2.80;;;2.40;;
8104;SDS011;4095;48.942;9.104;2024-03-02T11:12:36;2.38;;;2.17;;
8104;SDS011;4095;48.942;9.104;2024-03-02T11:15:05;2.30;;;2.10;;
8104;SDS011;4095;48.942;9.104;2024-03-02T11:17:35;2.15;;;2.00;;
8104;SDS011;4095;48.942;9.104;2024-03-02T11:20:02;1.90;;;1.80;;
8104;SDS011;4095;48.942;9.104;2024-03-02T11:22:29;2.50;;;2.30;;
8104;SDS011;4095;48.942;9.104;2024-03-02T11:24:55;2.08;;;1.83;;
8104;SDS011;4095;48.942;9.104;2024-03-02T11:32:59;1.70;;;1.60;;
8104;SDS011;4095;48.942;9.104;2024-03-02T11:35:26;2.17;;;1.98;;
8104;SDS011;4095;48.942;9.104;2024-03-02T11:37:55;2.50;;;2.13;;
8104;SDS011;4095;48.942;9.104;2024-03-02T11:40:27;2.58;;;1.92;;
8104;SDS011;4095;48.942;9.104;2024-03-02T11:42:53;1.95;;;1.80;;
8104;SDS011;4095;48.942;9.104;2024-03-02T11:45:22;1.70;;;1.60;;
8104;SDS011;4095;48.942;9.104;2024-03-02T11:47:55;3.60;;;2.20;;
8104;SDS011;4095;48.942;9.104;2024-03-02T11:53:22;2.38;;;2.17;;
8104;SDS011;4095;48.942;9.104;2024-03-02T11:55:48;2.40;;;2.20;;
8104;SDS011;4095;48.942;9.104;2024-03-02T11:58:15;2.30;;;2.10;;
8104;SDS011;4095;48.942;9.104;2024-03-02T12:00:53;2.35;;;2.10;;
8104;SDS011;4095;48.942;9.104;2024-03-02T12:03:21;2.55;;;2.35;;
8104;SDS011;4095;48.942;9.104;2024-03-02T12:05:50;2.08;;;1.98;;
8104;SDS011;4095;48.942;9.104;2024-03-02T12:08:19;2.00;;;1.70;;
8104;SDS011;4095;48.942;9.104;2024-03-02T12:10:59;2.22;;;2.00;;
8104;SDS011;4095;48.942;9.104;2024-03-02T12:13:26;2.63;;;2.42;;
8104;SDS011;4095;48.942;9.104;2024-03-02T12:15:54;1.77;;;1.63;;
8104;SDS011;4095;48.942;9.104;2024-03-02T12:18:24;1.58;;;1.38;;
8104;SDS011;4095;48.942;9.104;2024-03-02T12:20:50;1.83;;;1.52;;
8104;SDS011;4095;48.942;9.104;2024-03-02T12:23:23;1.73;;;1.50;;
8104;SDS011;4095;48.942;9.104;2024-03-02T12:25:49;2.13;;;1.92;;
8104;SDS011;4095;48.942;9.104;2024-03-02T12:28:15;2.38;;;1.50;;
8104;SDS011;4095;48.942;9.104;2024-03-02T12:30:41;1.73;;;1.63;;
8104;SDS011;4095;48.942;9.104;2024-03-02T12:33:06;2.17;;;1.98;;
8104;SDS011;4095;48.942;9.104;2024-03-02T12:35:32;1.38;;;1.27;;
8104;SDS011;4095;48.942;9.104;2024-03-02T12:37:57;1.67;;;1.30;;
8104;SDS011;4095;48.942;9.104;2024-03-02T12:40:23;1.40;;;1.20;;
8104;SDS011;4095;48.942;9.104;2024-03-02T12:42:49;2.28;;;1.30;;
8104;SDS011;4095;48.942;9.104;2024-03-02T12:45:15;1.40;;;1.30;;
8104;SDS011;4095;48.942;9.104;2024-03-02T12:47:48;1.23;;;0.80;;
8104;SDS011;4095;48.942;9.104;2024-03-02T12:50:14;1.10;;;1.00;;
8104;SDS011;4095;48.942;9.104;2024-03-02T12:52:40;1.20;;;1.10;;
8104;SDS011;4095;48.942;9.104;2024-03-02T12:55:06;1.38;;;1.27;;
8104;SDS011;4095;48.942;9.104;2024-03-02T12:57:32;1.02;;;1.02;;
8104;SDS011;4095;48.942;9.104;2024-03-02T13:02:34;3.58;;;1.33;;
8104;SDS011;4095;48.942;9.104;2024-03-02T13:05:05;1.08;;;0.98;;
8104;SDS011;4095;48.942;9.104;2024-03-02T13:07:36;1.13;;;1.00;;
8104;SDS011;4095;48.942;9.104;2024-03-02T13:10:02;0.82;;;0.70;;
8104;SDS011;4095;48.942;9.104;2024-03-02T13:12:28;0.88;;;0.70;;
8104;SDS011;4095;48.942;9.104;2024-03-02T13:14:55;0.90;;;0.80;;
8104;SDS011;4095;48.942;9.104;2024-03-02T13:17:23;3.05;;;2.33;;
8104;SDS011;4095;48.942;9.104;2024-03-02T13:19:56;1.80;;;1.40;;
8104;SDS011;4095;48.942;9.104;2024-03-02T13:22:23;2.20;;;2.00;;
8104;SDS011;4095;48.942;9.104;2024-03-02T13:24:50;1.58;;;1.40;;
8104;SDS011;4095;48.942;9.104;2024-03-02T13:27:16;1.13;;;1.02;;
8104;SDS011;4095;48.942;9.104;2024-03-02T13:29:44;1.25;;;1.13;;
8104;SDS011;4095;48.942;9.104;2024-03-02T13:32:11;1.63;;;1.10;;
8104;SDS011;4095;48.942;9.104;2024-03-02T13:34:36;1.17;;;1.02;;
8104;SDS011;4095;48.942;9.104;2024-03-02T13:37:02;1.23;;;1.10;;
8104;SDS011;4095;48.942;9.104;2024-03-02T13:39:29;1.90;;;1.20;;
8104;SDS011;4095;48.942;9.104;2024-03-02T13:41:56;0.88;;;0.80;;
8104;SDS011;4095;48.942;9.104;2024-03-02T13:44:30;2.78;;;1.00;;
8104;SDS011;4095;48.942;9.104;2024-03-02T13:46:56;1.10;;;1.00;;
8104;SDS011;4095;48.942;9.104;2024-03-02T13:49:24;1.65;;;1.13;;
8104;SDS011;4095;48.942;9.104;2024-03-02T13:51:53;2.25;;;1.23;;
8104;SDS011;4095;48.942;9.104;2024-03-02T13:54:20;1.77;;;1.38;;
8104;SDS011;4095;48.942;9.104;2024-03-02T13:56:45;0.88;;;0.88;;
8104;SDS011;4095;48.942;9.104;2024-03-02T13:59:11;1.27;;;1.00;;
8104;SDS011;4095;48.942;9.104;2024-03-02T14:01:37;1.13;;;0.90;;
8104;SDS011;4095;48.942;9.104;2024-03-02T14:04:03;4.45;;;1.60;;
8104;SDS011;4095;48.942;9.104;2024-03-02T14:06:29;1.30;;;1.20;;
8104;SDS011;4095;48.942;9.104;2024-03-02T14:08:54;1.58;;;1.02;;
8104;SDS011;4095;48.942;9.104;2024-03-02T14:11:20;1.52;;;1.02;;
8104;SDS011;4095;48.942;9.104;2024-03-02T14:13:45;1.00;;;0.90;;
8104;SDS011;4095;48.942;9.104;2024-03-02T14:16:18;1.27;;;1.00;;
8104;SDS011;4095;48.942;9.104;2024-03-02T14:18:44;1.35;;;1.25;;
8104;SDS011;4095;48.942;9.104;2024-03-02T14:21:10;1.17;;;1.08;;
8104;SDS011;4095;48.942;9.104;2024-03-02T14:23:35;1.35;;;1.25;;
8104;SDS011;4095;48.942;9.104;2024-03-02T14:26:01;1.30;;;1.20;;
8104;SDS011;4095;48.942;9.104;2024-03-02T14:28:27;0.95;;;0.85;;
8104;SDS011;4095;48.942;9.104;2024-03-02T14:30:53;1.13;;;1.00;;
8104;SDS011;4095;48.942;9.104;2024-03-02T14:33:18;0.80;;;0.80;;
8104;SDS011;4095;48.942;9.104;2024-03-02T14:35:44;0.82;;;0.80;;
8104;SDS011;4095;48.942;9.104;2024-03-02T14:38:11;0.90;;;0.77;;
8104;SDS011;4095;48.942;9.104;2024-03-02T14:40:37;1.92;;;0.90;;
8104;SDS011;4095;48.942;9.104;2024-03-02T14:43:02;1.42;;;0.90;;
8104;SDS011;4095;48.942;9.104;2024-03-02T14:45:28;1.67;;;1.10;;
8104;SDS011;4095;48.942;9.104;2024-03-02T14:47:54;0.80;;;0.80;;
8104;SDS011;4095;48.942;9.104;2024-03-02T14:50:20;1.00;;;0.90;;
8104;SDS011;4095;48.942;9.104;2024-03-02T14:52:46;2.03;;;1.20;;
8104;SDS011;4095;48.942;9.104;2024-03-02T14:55:11;1.05;;;0.95;;
8104;SDS011;4095;48.942;9.104;2024-03-02T14:57:37;1.20;;;1.10;;
8104;SDS011;4095;48.942;9.104;2024-03-02T15:00:03;2.05;;;1.30;;
8104;SDS011;4095;48.942;9.104;2024-03-02T15:02:32;1.63;;;1.20;;
8104;SDS011;4095;48.942;9.104;2024-03-02T15:04:58;1.30;;;1.20;;
8104;SDS011;4095;48.942;9.104;2024-03-02T15:07:24;1.13;;;1.08;;
8104;SDS011;4095;48.942;9.104;2024-03-02T15:09:49;1.30;;;1.20;;